Alden, Minnesota
Current Conditions -  °F | °C
As of 11:15 AM on Thursday 30 Oct 2014 (Local Time) from KAEL Reporting Station
Broken Clouds Broken Clouds  
Wind Chill: 45°   Ceiling: 8000
Heat Index: 45°   Visibility: 10mi
Dew Point: 37°   Wind: 0mph
Humidity: 76%   Direction: NA
Pressure: 30.06"   Gusts: NA
Location:  43.67°N, 93.58°W
Report Text: KAEL 301615Z AUTO 00000KT 10SM SCT060 BKN080 07/03 A3006 RMK AO2
Loading
Personal Weather Stations






























Interactive Weather Map
Tropical Storm Tracking
New forecast layout! Learn more

10-Day Weather Forecast

Advertisements
Track Severe Weather on mobile